Terminal Aerodrome Forecast
Issued by NWS

Current Version | Previous Version | Text Only | Print | Product List | Glossary On
Versions: 1 2 3 4 5 6 7 8 9 10 11 12 13 14 15
000
FTUS42 KTBW 301100
TAFPIE
TAF
KPIE 301120Z 3012/3112 VRB04KT 4SM BR FEW250
      TEMPO 3012/3013 1SM BR SCT007
     FM301300 31007KT P6SM FEW025 SCT250
     FM301700 33011KT P6SM SCT030 BKN250
     FM310300 02009KT P6SM SCT250=

USA.gov is the U.S. government's official web portal to all federal, state and local government web resources and services.